• Join FlightAware (Why Join?)
  • Login
  • US Flag GB Flag 
04:41 EDT


 

Airport Tracker/Info


-or-


 

Live Flight TrackerFlight Track Log ✈ ASQ5685 ✈ 11-Dec-2013 ✈ KATL - KIAD

Flight Track Log - Related Links

Times and Time Zones

All times are in EST time to prevent confusion due to time zone crossing. See the ASQ5685 flight status page for this flight to view local times or setup timezone preferences in your user account.

Time Position Orientation Groundspeed Altitude Reporting Facility
EST Latitude Longitude Course Direction KTS MPH feet Rate Location/Type
09:47 33.6167 -84.5167 76° East 233 268 3,700  Level Atlanta TRACON
09:48 33.5833 -84.5833 239° Southwest 265 305 7,000 2,940 Climbing Atlanta TRACON
09:49 33.9026 -84.1117 54° Northeast  Level Estimated
09:49 33.5000 -84.5833 180° South 281 323 9,300  Level Atlanta TRACON
09:50 33.9910 -84.0059 48° Northeast  Level Estimated
09:50 33.4758 -84.5717 158° South 308 354 10,300  Level Atlanta Center
09:51 34.0794 -83.8998 53° Northeast  Level Estimated
09:51 33.4575 -84.4644 102° East 358 412 11,600  Level Atlanta Center
09:52 34.1098 -83.7539 76° East  Level FlightAware Approximate
09:52 33.4578 -84.3425 90° East 386 444 13,100  Level Atlanta Center
09:53 33.5122 -84.2406 57° Northeast 347 399 14,300 1,320 Climbing Atlanta Center
09:54 33.6083 -84.1761 29° Northeast 361 415 15,800 1,680 Climbing Atlanta Center
09:55 33.7086 -84.1136 27° Northeast 390 449 17,700 1,440 Climbing Atlanta Center
09:56 33.7817 -84.0014 52° Northeast 400 460 18,700 840 Climbing Atlanta Center
09:57 33.8464 -83.8761 58° Northeast 430 495 19,400 900 Climbing Atlanta Center
09:58 33.9128 -83.7458 58° Northeast 456 525 20,600 1,260 Climbing Atlanta Center
09:59 33.9958 -83.6078 54° Northeast 456 525 22,000 1,140 Climbing Atlanta Center
10:00 34.0728 -83.4847 53° Northeast 456 525 22,900 720 Climbing Atlanta Center
10:01 34.1556 -83.3586 52° Northeast 466 536 23,500 600 Climbing Atlanta Center
10:02 34.2361 -83.2272 53° Northeast 475 547 24,100 840 Climbing Atlanta Center
10:03 34.3186 -83.0931 53° Northeast 488 562 25,200 1,140 Climbing Atlanta Center
10:04 34.3989 -82.9589 54° Northeast 488 562 26,400 960 Climbing Atlanta Center
10:05 34.4811 -82.8317 52° Northeast 485 558 27,200 720 Climbing Atlanta Center
10:06 34.5633 -82.6994 53° Northeast 490 564 27,900 540 Climbing Atlanta Center
10:07 34.6392 -82.5769 53° Northeast 485 558 28,400 480 Climbing Atlanta Center
10:08 34.7208 -82.4417 54° Northeast 485 558 28,900 480 Climbing Atlanta Center
10:09 34.8067 -82.3058 52° Northeast 496 571 29,400 480 Climbing Atlanta Center
10:10 34.8983 -82.1494 54° Northeast 504 580 29,900 480 Climbing Atlanta Center
10:11 34.9839 -82.0158 52° Northeast 509 586 30,400 480 Climbing Atlanta Center
10:12 35.0589 -81.8844 55° Northeast 515 593 30,900 240 Climbing Atlanta Center
10:13 35.1375 -81.7353 57° Northeast 521 600 31,000  Climbing Atlanta Center
10:14 35.2181 -81.5803 58° Northeast 526 605 31,000  Level Atlanta Center
10:15 35.3003 -81.4253 57° Northeast 537 618 31,000  Level Atlanta Center
10:16 35.3822 -81.2647 58° Northeast 542 624 31,000  Level Atlanta Center
10:17 35.4661 -81.1039 57° Northeast 553 636 31,000  Level Atlanta Center
10:18 35.5519 -80.9425 57° Northeast 559 643 31,000  Level Atlanta Center
10:19 35.6353 -80.7783 58° Northeast 559 643 31,000  Level Atlanta Center
10:20 35.7206 -80.6164 57° Northeast 559 643 31,000  Level Atlanta Center
10:21 35.8056 -80.4489 58° Northeast 564 649 31,000  Level Atlanta Center
10:22 35.8903 -80.2836 58° Northeast 564 649 31,000  Level Atlanta Center
10:23 35.9783 -80.1025 59° Northeast 564 649 31,000  Level Atlanta Center
10:25 36.1933 -79.7203 55° Northeast 561 646 31,000  Level Washington Center
10:26 36.2844 -79.5575 55° Northeast 566 651 31,000 -180 Level Washington Center
10:27 36.3772 -79.3997 54° Northeast 571 657 30,700 -420 Descending Washington Center
10:28 36.4658 -79.2336 56° Northeast 565 650 30,200 -1,380 Descending Washington Center
10:29 36.5558 -79.0803 54° Northeast 565 650 28,100 -2,160 Descending Washington Center
10:30 36.6417 -78.9261 55° Northeast 555 639 26,000 -1,560 Descending Washington Center
10:31 36.7208 -78.7739 57° Northeast 543 625 25,000 -540 Descending Washington Center
10:32 36.7933 -78.6422 55° Northeast 524 603 25,000  Level Washington Center
10:33 36.8764 -78.4897 56° Northeast 519 597 25,000  Level Washington Center
10:34 36.9592 -78.3394 55° Northeast 519 597 25,000  Level Washington Center
10:35 37.0500 -78.1942 52° Northeast 519 597 25,000 -600 Level Washington Center
10:36 37.1708 -78.1072 30° Northeast 494 568 23,900 -1,140 Descending Washington Center
10:37 37.2894 -78.0169 31° Northeast 494 568 22,800 -960 Descending Washington Center
10:38 37.3975 -77.9289 33° Northeast 487 560 22,000 -420 Descending Washington Center
10:39 37.5161 -77.8383 31° Northeast 472 543 22,000 -480 Level Washington Center
10:40 37.6322 -77.7683 26° Northeast 458 527 21,100 -1,800 Descending Washington Center
10:41 37.7500 -77.7008 24° Northeast 458 527 18,500 -2,460 Descending Washington Center
10:42 37.8575 -77.6406 24° Northeast 438 504 16,300 -2,040 Descending Washington Center
10:43 37.9481 -77.5825 27° Northeast 405 466 14,400 -2,040 Descending Washington Center
10:44 38.0325 -77.5319 25° Northeast 354 407 12,300 -2,100 Descending Washington Center
10:45 38.1144 -77.4894 22° Northeast 327 376 10,200 -1,140 Descending Washington Center
10:46 38.1944 -77.4411 25° Northeast 317 365 10,100 -60 Descending Washington Center
10:47 38.2744 -77.3928 25° Northeast 312 359 10,100 -360 Level Washington Center
10:48 38.3519 -77.3603 18° North 307 353 9,400 -900 Descending Washington Center
10:49 38.4292 -77.3622 359° North 279 321 8,300 -1,200 Descending Washington Center
10:50 38.5022 -77.3639 359° North 272 313 7,100 -1,200 Descending Washington Center
10:51 38.5731 -77.3683 357° North 261 300 5,900 -1,320 Descending Washington Center
10:52 38.6397 -77.3644 North 250 288 4,600 -960 Descending Washington Center
10:53 38.7106 -77.3608 North 245 282 4,100 -300 Descending Washington Center
10:54 38.7833 -77.3500 North 254 292 4,000 -300 Descending Potomac TRACON
10:55 38.8667 -77.3500 360° North 244 281 3,600 -540 Descending Potomac TRACON
10:56 38.9333 -77.3500 360° North 258 297 3,000 -360 Descending Potomac TRACON
10:57 39.0000 -77.3500 360° North 254 292 3,000  Level Potomac TRACON
10:58 39.0667 -77.3500 360° North 246 283 3,000  Level Potomac TRACON
10:59 39.1167 -77.3667 346° North 211 243 3,000 -420 Level Potomac TRACON
11:00 39.0833 -77.4000 218° Southwest 201 231 2,200 -540 Descending Potomac TRACON
11:01 39.0500 -77.4333 218° Southwest 166 191 2,000 -480 Descending Potomac TRACON
11:02 39.0000 -77.4333 180° South 147 169 1,300 -780 Descending Potomac TRACON
11:03 38.9667 -77.4333 180° South 129 148 500 -840 Descending Potomac TRACON
11:05 38.9474 -77.4599 191° South  Level Estimated
11:12 38.9474 -77.4599 191° South  Level Estimated